sensor_id;sensor_type;location;lat;lon;timestamp;P1;durP1;ratioP1;P2;durP2;ratioP2
2868;SDS011;1442;47.448;8.582;2023-03-19T00:02:09;7.47;;;2.92;;
2868;SDS011;1442;47.448;8.582;2023-03-19T00:04:37;4.95;;;3.25;;
2868;SDS011;1442;47.448;8.582;2023-03-19T00:07:05;6.47;;;2.58;;
2868;SDS011;1442;47.448;8.582;2023-03-19T00:09:32;4.47;;;2.40;;
2868;SDS011;1442;47.448;8.582;2023-03-19T00:11:59;8.23;;;3.13;;
2868;SDS011;1442;47.448;8.582;2023-03-19T00:14:26;7.00;;;3.28;;
2868;SDS011;1442;47.448;8.582;2023-03-19T00:16:53;5.85;;;2.80;;
2868;SDS011;1442;47.448;8.582;2023-03-19T00:19:20;6.72;;;2.70;;
2868;SDS011;1442;47.448;8.582;2023-03-19T00:21:49;4.35;;;2.63;;
2868;SDS011;1442;47.448;8.582;2023-03-19T00:24:16;8.25;;;3.42;;
2868;SDS011;1442;47.448;8.582;2023-03-19T00:26:44;9.27;;;3.80;;
2868;SDS011;1442;47.448;8.582;2023-03-19T00:29:11;6.05;;;3.33;;
2868;SDS011;1442;47.448;8.582;2023-03-19T00:31:39;7.85;;;3.20;;
2868;SDS011;1442;47.448;8.582;2023-03-19T00:34:06;9.40;;;3.65;;
2868;SDS011;1442;47.448;8.582;2023-03-19T00:36:34;8.40;;;3.00;;
2868;SDS011;1442;47.448;8.582;2023-03-19T00:39:02;6.40;;;3.45;;
2868;SDS011;1442;47.448;8.582;2023-03-19T00:41:29;10.35;;;3.20;;
2868;SDS011;1442;47.448;8.582;2023-03-19T00:43:57;6.78;;;3.47;;
2868;SDS011;1442;47.448;8.582;2023-03-19T00:46:25;7.53;;;3.38;;
2868;SDS011;1442;47.448;8.582;2023-03-19T00:48:52;4.10;;;2.97;;
2868;SDS011;1442;47.448;8.582;2023-03-19T00:51:20;4.85;;;3.13;;
2868;SDS011;1442;47.448;8.582;2023-03-19T00:53:47;6.07;;;2.92;;
2868;SDS011;1442;47.448;8.582;2023-03-19T00:56:16;7.55;;;3.20;;
2868;SDS011;1442;47.448;8.582;2023-03-19T00:58:44;7.53;;;3.33;;
2868;SDS011;1442;47.448;8.582;2023-03-19T01:01:12;7.90;;;3.22;;
2868;SDS011;1442;47.448;8.582;2023-03-19T01:03:39;8.90;;;2.88;;
2868;SDS011;1442;47.448;8.582;2023-03-19T01:06:07;6.38;;;3.20;;
2868;SDS011;1442;47.448;8.582;2023-03-19T01:08:34;6.90;;;3.40;;
2868;SDS011;1442;47.448;8.582;2023-03-19T01:11:05;10.52;;;3.60;;
2868;SDS011;1442;47.448;8.582;2023-03-19T01:13:34;6.05;;;3.17;;
2868;SDS011;1442;47.448;8.582;2023-03-19T01:16:01;5.75;;;3.33;;
2868;SDS011;1442;47.448;8.582;2023-03-19T01:18:29;7.93;;;4.43;;
2868;SDS011;1442;47.448;8.582;2023-03-19T01:20:56;6.35;;;4.03;;
2868;SDS011;1442;47.448;8.582;2023-03-19T01:23:24;10.35;;;3.55;;
2868;SDS011;1442;47.448;8.582;2023-03-19T01:25:51;6.38;;;3.40;;
2868;SDS011;1442;47.448;8.582;2023-03-19T01:28:18;9.63;;;4.00;;
2868;SDS011;1442;47.448;8.582;2023-03-19T01:30:47;8.23;;;3.80;;
2868;SDS011;1442;47.448;8.582;2023-03-19T01:33:15;10.32;;;3.78;;
2868;SDS011;1442;47.448;8.582;2023-03-19T01:35:44;6.80;;;3.20;;
2868;SDS011;1442;47.448;8.582;2023-03-19T01:38:13;9.88;;;3.47;;
2868;SDS011;1442;47.448;8.582;2023-03-19T01:40:43;7.80;;;3.53;;
2868;SDS011;1442;47.448;8.582;2023-03-19T01:43:12;6.13;;;3.17;;
2868;SDS011;1442;47.448;8.582;2023-03-19T01:45:40;8.63;;;3.40;;
2868;SDS011;1442;47.448;8.582;2023-03-19T01:48:10;7.25;;;4.22;;
2868;SDS011;1442;47.448;8.582;2023-03-19T01:50:39;8.95;;;4.72;;
2868;SDS011;1442;47.448;8.582;2023-03-19T01:53:07;9.98;;;4.18;;
2868;SDS011;1442;47.448;8.582;2023-03-19T01:55:35;9.43;;;4.57;;
2868;SDS011;1442;47.448;8.582;2023-03-19T01:58:03;11.32;;;4.65;;
2868;SDS011;1442;47.448;8.582;2023-03-19T02:00:31;10.10;;;4.35;;
2868;SDS011;1442;47.448;8.582;2023-03-19T02:03:00;13.32;;;4.82;;
2868;SDS011;1442;47.448;8.582;2023-03-19T02:05:28;9.15;;;4.68;;
2868;SDS011;1442;47.448;8.582;2023-03-19T02:07:58;12.32;;;5.07;;
2868;SDS011;1442;47.448;8.582;2023-03-19T02:10:26;9.68;;;4.80;;
2868;SDS011;1442;47.448;8.582;2023-03-19T02:12:54;10.77;;;4.28;;
2868;SDS011;1442;47.448;8.582;2023-03-19T02:15:22;8.90;;;4.10;;
2868;SDS011;1442;47.448;8.582;2023-03-19T02:17:49;9.57;;;4.45;;
2868;SDS011;1442;47.448;8.582;2023-03-19T02:20:17;10.75;;;4.50;;
2868;SDS011;1442;47.448;8.582;2023-03-19T02:22:50;8.48;;;4.35;;
2868;SDS011;1442;47.448;8.582;2023-03-19T02:25:19;8.35;;;3.85;;
2868;SDS011;1442;47.448;8.582;2023-03-19T02:27:48;9.48;;;4.63;;
2868;SDS011;1442;47.448;8.582;2023-03-19T02:30:17;9.38;;;4.47;;
2868;SDS011;1442;47.448;8.582;2023-03-19T02:32:44;8.93;;;4.65;;
2868;SDS011;1442;47.448;8.582;2023-03-19T02:35:11;9.45;;;4.25;;
2868;SDS011;1442;47.448;8.582;2023-03-19T02:37:39;9.85;;;4.35;;
2868;SDS011;1442;47.448;8.582;2023-03-19T02:40:07;9.23;;;4.85;;
2868;SDS011;1442;47.448;8.582;2023-03-19T02:42:37;11.20;;;4.35;;
2868;SDS011;1442;47.448;8.582;2023-03-19T02:45:06;9.15;;;4.35;;
2868;SDS011;1442;47.448;8.582;2023-03-19T02:47:33;10.38;;;4.28;;
2868;SDS011;1442;47.448;8.582;2023-03-19T02:50:01;13.93;;;4.78;;
2868;SDS011;1442;47.448;8.582;2023-03-19T02:52:28;11.43;;;4.57;;
2868;SDS011;1442;47.448;8.582;2023-03-19T02:54:55;12.73;;;4.93;;
2868;SDS011;1442;47.448;8.582;2023-03-19T02:57:22;9.10;;;4.82;;
2868;SDS011;1442;47.448;8.582;2023-03-19T02:59:49;9.50;;;4.80;;
2868;SDS011;1442;47.448;8.582;2023-03-19T03:02:18;9.23;;;4.70;;
2868;SDS011;1442;47.448;8.582;2023-03-19T03:04:45;12.55;;;5.50;;
2868;SDS011;1442;47.448;8.582;2023-03-19T03:07:12;9.23;;;4.75;;
2868;SDS011;1442;47.448;8.582;2023-03-19T03:09:39;11.95;;;4.55;;
2868;SDS011;1442;47.448;8.582;2023-03-19T03:12:07;8.90;;;4.57;;
2868;SDS011;1442;47.448;8.582;2023-03-19T03:14:34;10.23;;;4.45;;
2868;SDS011;1442;47.448;8.582;2023-03-19T03:17:02;14.68;;;4.63;;
2868;SDS011;1442;47.448;8.582;2023-03-19T03:19:30;11.15;;;4.97;;
2868;SDS011;1442;47.448;8.582;2023-03-19T03:21:57;11.35;;;4.50;;
2868;SDS011;1442;47.448;8.582;2023-03-19T03:24:25;9.68;;;4.43;;
2868;SDS011;1442;47.448;8.582;2023-03-19T03:26:52;12.00;;;4.75;;
2868;SDS011;1442;47.448;8.582;2023-03-19T03:29:20;9.50;;;4.60;;
2868;SDS011;1442;47.448;8.582;2023-03-19T03:31:47;9.63;;;4.60;;
2868;SDS011;1442;47.448;8.582;2023-03-19T03:34:14;10.43;;;4.82;;
2868;SDS011;1442;47.448;8.582;2023-03-19T03:36:42;12.43;;;4.22;;
2868;SDS011;1442;47.448;8.582;2023-03-19T03:39:11;11.50;;;4.55;;
2868;SDS011;1442;47.448;8.582;2023-03-19T03:41:38;9.35;;;4.50;;
2868;SDS011;1442;47.448;8.582;2023-03-19T03:44:06;9.90;;;4.15;;
2868;SDS011;1442;47.448;8.582;2023-03-19T03:46:34;11.50;;;4.57;;
2868;SDS011;1442;47.448;8.582;2023-03-19T03:49:01;13.75;;;4.50;;
2868;SDS011;1442;47.448;8.582;2023-03-19T03:51:28;9.77;;;3.95;;
2868;SDS011;1442;47.448;8.582;2023-03-19T03:53:58;9.15;;;4.13;;
2868;SDS011;1442;47.448;8.582;2023-03-19T03:56:25;5.93;;;3.42;;
2868;SDS011;1442;47.448;8.582;2023-03-19T03:58:52;13.02;;;4.78;;
2868;SDS011;1442;47.448;8.582;2023-03-19T04:01:19;7.18;;;4.05;;
2868;SDS011;1442;47.448;8.582;2023-03-19T04:03:47;10.60;;;4.03;;
2868;SDS011;1442;47.448;8.582;2023-03-19T04:06:14;10.05;;;3.83;;
2868;SDS011;1442;47.448;8.582;2023-03-19T04:08:43;8.48;;;4.18;;
2868;SDS011;1442;47.448;8.582;2023-03-19T04:11:12;8.65;;;4.35;;
2868;SDS011;1442;47.448;8.582;2023-03-19T04:13:39;9.88;;;4.00;;
2868;SDS011;1442;47.448;8.582;2023-03-19T04:16:07;13.27;;;4.32;;
2868;SDS011;1442;47.448;8.582;2023-03-19T04:18:35;8.55;;;3.65;;
2868;SDS011;1442;47.448;8.582;2023-03-19T04:21:02;8.77;;;4.05;;
2868;SDS011;1442;47.448;8.582;2023-03-19T04:23:29;7.75;;;3.47;;
2868;SDS011;1442;47.448;8.582;2023-03-19T04:25:57;7.93;;;3.42;;
2868;SDS011;1442;47.448;8.582;2023-03-19T04:28:26;12.23;;;3.63;;
2868;SDS011;1442;47.448;8.582;2023-03-19T04:30:57;6.40;;;3.38;;
2868;SDS011;1442;47.448;8.582;2023-03-19T04:33:24;7.95;;;3.47;;
2868;SDS011;1442;47.448;8.582;2023-03-19T04:35:51;6.95;;;3.47;;
2868;SDS011;1442;47.448;8.582;2023-03-19T04:38:19;8.68;;;3.92;;
2868;SDS011;1442;47.448;8.582;2023-03-19T04:40:46;9.35;;;3.83;;
2868;SDS011;1442;47.448;8.582;2023-03-19T04:43:13;7.50;;;3.63;;
2868;SDS011;1442;47.448;8.582;2023-03-19T04:45:42;7.13;;;3.10;;
2868;SDS011;1442;47.448;8.582;2023-03-19T04:48:10;7.55;;;3.67;;
2868;SDS011;1442;47.448;8.582;2023-03-19T04:50:37;8.45;;;3.63;;
2868;SDS011;1442;47.448;8.582;2023-03-19T04:53:05;7.45;;;3.53;;
2868;SDS011;1442;47.448;8.582;2023-03-19T04:55:33;6.03;;;3.35;;
2868;SDS011;1442;47.448;8.582;2023-03-19T04:58:01;9.27;;;3.65;;
2868;SDS011;1442;47.448;8.582;2023-03-19T05:00:28;7.15;;;2.80;;
2868;SDS011;1442;47.448;8.582;2023-03-19T05:02:57;10.38;;;3.53;;
2868;SDS011;1442;47.448;8.582;2023-03-19T05:05:24;7.15;;;3.47;;
2868;SDS011;1442;47.448;8.582;2023-03-19T05:07:51;6.55;;;2.63;;
2868;SDS011;1442;47.448;8.582;2023-03-19T05:10:18;5.85;;;3.05;;
2868;SDS011;1442;47.448;8.582;2023-03-19T05:12:46;5.93;;;3.28;;
2868;SDS011;1442;47.448;8.582;2023-03-19T05:15:13;8.77;;;3.42;;
2868;SDS011;1442;47.448;8.582;2023-03-19T05:17:40;6.55;;;2.63;;
2868;SDS011;1442;47.448;8.582;2023-03-19T05:20:10;6.78;;;2.85;;
2868;SDS011;1442;47.448;8.582;2023-03-19T05:22:38;8.82;;;3.67;;
2868;SDS011;1442;47.448;8.582;2023-03-19T05:25:05;7.63;;;2.63;;
2868;SDS011;1442;47.448;8.582;2023-03-19T05:27:33;4.68;;;2.65;;
2868;SDS011;1442;47.448;8.582;2023-03-19T05:30:00;6.05;;;3.05;;
2868;SDS011;1442;47.448;8.582;2023-03-19T05:32:28;6.70;;;3.30;;
2868;SDS011;1442;47.448;8.582;2023-03-19T05:34:56;6.75;;;2.92;;
2868;SDS011;1442;47.448;8.582;2023-03-19T05:37:25;14.90;;;3.35;;
2868;SDS011;1442;47.448;8.582;2023-03-19T05:39:52;7.68;;;3.50;;
2868;SDS011;1442;47.448;8.582;2023-03-19T05:42:19;7.90;;;3.35;;
2868;SDS011;1442;47.448;8.582;2023-03-19T05:44:46;5.45;;;3.08;;
2868;SDS011;1442;47.448;8.582;2023-03-19T05:47:14;7.03;;;3.20;;
2868;SDS011;1442;47.448;8.582;2023-03-19T05:49:41;5.68;;;3.00;;
2868;SDS011;1442;47.448;8.582;2023-03-19T05:52:08;11.15;;;3.53;;
2868;SDS011;1442;47.448;8.582;2023-03-19T05:54:37;5.90;;;2.88;;
2868;SDS011;1442;47.448;8.582;2023-03-19T05:57:05;4.95;;;2.85;;
2868;SDS011;1442;47.448;8.582;2023-03-19T05:59:33;7.10;;;3.20;;
2868;SDS011;1442;47.448;8.582;2023-03-19T06:02:00;6.43;;;2.70;;
2868;SDS011;1442;47.448;8.582;2023-03-19T06:04:27;6.10;;;2.78;;
2868;SDS011;1442;47.448;8.582;2023-03-19T06:06:54;6.20;;;2.90;;
2868;SDS011;1442;47.448;8.582;2023-03-19T06:09:21;9.02;;;2.35;;
2868;SDS011;1442;47.448;8.582;2023-03-19T06:11:50;7.95;;;2.75;;
2868;SDS011;1442;47.448;8.582;2023-03-19T06:14:17;6.07;;;3.00;;
2868;SDS011;1442;47.448;8.582;2023-03-19T06:16:44;6.93;;;2.60;;
2868;SDS011;1442;47.448;8.582;2023-03-19T06:19:11;4.82;;;2.83;;
2868;SDS011;1442;47.448;8.582;2023-03-19T06:21:38;6.90;;;3.22;;
2868;SDS011;1442;47.448;8.582;2023-03-19T06:24:06;4.25;;;2.63;;
2868;SDS011;1442;47.448;8.582;2023-03-19T06:26:33;5.88;;;2.47;;
2868;SDS011;1442;47.448;8.582;2023-03-19T06:29:02;6.93;;;3.08;;
2868;SDS011;1442;47.448;8.582;2023-03-19T06:31:30;4.47;;;2.85;;
2868;SDS011;1442;47.448;8.582;2023-03-19T06:33:57;5.65;;;3.13;;
2868;SDS011;1442;47.448;8.582;2023-03-19T06:36:24;4.65;;;2.45;;
2868;SDS011;1442;47.448;8.582;2023-03-19T06:38:51;6.32;;;3.03;;
2868;SDS011;1442;47.448;8.582;2023-03-19T06:41:18;5.43;;;2.70;;
2868;SDS011;1442;47.448;8.582;2023-03-19T06:43:46;4.40;;;2.40;;
2868;SDS011;1442;47.448;8.582;2023-03-19T06:46:14;6.32;;;2.72;;
2868;SDS011;1442;47.448;8.582;2023-03-19T06:48:41;5.00;;;2.45;;
2868;SDS011;1442;47.448;8.582;2023-03-19T06:51:09;6.57;;;2.60;;
2868;SDS011;1442;47.448;8.582;2023-03-19T06:53:36;7.45;;;2.95;;
2868;SDS011;1442;47.448;8.582;2023-03-19T06:56:04;6.80;;;3.80;;
2868;SDS011;1442;47.448;8.582;2023-03-19T06:58:31;4.55;;;2.80;;
2868;SDS011;1442;47.448;8.582;2023-03-19T07:00:59;7.53;;;2.83;;
2868;SDS011;1442;47.448;8.582;2023-03-19T07:03:28;5.20;;;2.63;;
2868;SDS011;1442;47.448;8.582;2023-03-19T07:05:55;11.13;;;3.83;;
2868;SDS011;1442;47.448;8.582;2023-03-19T07:08:22;3.97;;;2.35;;
2868;SDS011;1442;47.448;8.582;2023-03-19T07:10:53;5.18;;;2.80;;
2868;SDS011;1442;47.448;8.582;2023-03-19T07:13:21;5.63;;;3.05;;
2868;SDS011;1442;47.448;8.582;2023-03-19T07:15:48;7.82;;;3.50;;
2868;SDS011;1442;47.448;8.582;2023-03-19T07:18:15;7.45;;;3.13;;
2868;SDS011;1442;47.448;8.582;2023-03-19T07:20:44;4.70;;;2.80;;
2868;SDS011;1442;47.448;8.582;2023-03-19T07:23:11;10.18;;;3.22;;
2868;SDS011;1442;47.448;8.582;2023-03-19T07:25:38;5.43;;;3.00;;
2868;SDS011;1442;47.448;8.582;2023-03-19T07:28:06;5.78;;;2.80;;
2868;SDS011;1442;47.448;8.582;2023-03-19T07:30:33;6.15;;;2.90;;
2868;SDS011;1442;47.448;8.582;2023-03-19T07:33:02;5.07;;;2.78;;
2868;SDS011;1442;47.448;8.582;2023-03-19T07:35:30;5.22;;;2.83;;
2868;SDS011;1442;47.448;8.582;2023-03-19T07:37:58;7.25;;;3.22;;
2868;SDS011;1442;47.448;8.582;2023-03-19T07:40:26;6.25;;;2.53;;
2868;SDS011;1442;47.448;8.582;2023-03-19T07:42:53;4.35;;;2.88;;
2868;SDS011;1442;47.448;8.582;2023-03-19T07:45:20;6.47;;;2.70;;
2868;SDS011;1442;47.448;8.582;2023-03-19T07:47:48;4.97;;;2.80;;
2868;SDS011;1442;47.448;8.582;2023-03-19T07:50:16;5.28;;;2.17;;
2868;SDS011;1442;47.448;8.582;2023-03-19T07:52:44;7.80;;;2.83;;
2868;SDS011;1442;47.448;8.582;2023-03-19T07:55:13;4.43;;;2.80;;
2868;SDS011;1442;47.448;8.582;2023-03-19T07:57:40;6.32;;;3.03;;
2868;SDS011;1442;47.448;8.582;2023-03-19T08:00:08;5.95;;;2.28;;
2868;SDS011;1442;47.448;8.582;2023-03-19T08:02:36;5.75;;;3.00;;
2868;SDS011;1442;47.448;8.582;2023-03-19T08:05:03;4.18;;;2.38;;
2868;SDS011;1442;47.448;8.582;2023-03-19T08:07:30;5.43;;;2.40;;
2868;SDS011;1442;47.448;8.582;2023-03-19T08:09:58;5.30;;;2.90;;
2868;SDS011;1442;47.448;8.582;2023-03-19T08:12:26;4.90;;;3.10;;
2868;SDS011;1442;47.448;8.582;2023-03-19T08:14:53;6.85;;;2.53;;
2868;SDS011;1442;47.448;8.582;2023-03-19T08:17:20;6.10;;;2.45;;
2868;SDS011;1442;47.448;8.582;2023-03-19T08:19:47;5.38;;;2.55;;
2868;SDS011;1442;47.448;8.582;2023-03-19T08:22:15;2.85;;;2.17;;
2868;SDS011;1442;47.448;8.582;2023-03-19T08:24:42;4.65;;;2.00;;
2868;SDS011;1442;47.448;8.582;2023-03-19T08:27:09;4.70;;;2.60;;
2868;SDS011;1442;47.448;8.582;2023-03-19T08:29:38;4.20;;;2.17;;
2868;SDS011;1442;47.448;8.582;2023-03-19T08:32:05;7.47;;;2.58;;
2868;SDS011;1442;47.448;8.582;2023-03-19T08:34:32;4.93;;;2.22;;
2868;SDS011;1442;47.448;8.582;2023-03-19T08:37:00;3.72;;;2.22;;
2868;SDS011;1442;47.448;8.582;2023-03-19T08:39:27;3.78;;;2.88;;
2868;SDS011;1442;47.448;8.582;2023-03-19T08:41:54;9.80;;;3.33;;
2868;SDS011;1442;47.448;8.582;2023-03-19T08:44:21;4.95;;;2.58;;
2868;SDS011;1442;47.448;8.582;2023-03-19T08:46:50;6.38;;;2.70;;
2868;SDS011;1442;47.448;8.582;2023-03-19T08:49:17;4.80;;;2.20;;
2868;SDS011;1442;47.448;8.582;2023-03-19T08:51:44;7.20;;;2.70;;
2868;SDS011;1442;47.448;8.582;2023-03-19T08:54:11;5.93;;;2.60;;
2868;SDS011;1442;47.448;8.582;2023-03-19T08:56:39;6.60;;;2.58;;
2868;SDS011;1442;47.448;8.582;2023-03-19T08:59:06;5.82;;;2.63;;
2868;SDS011;1442;47.448;8.582;2023-03-19T09:01:33;5.13;;;2.22;;
2868;SDS011;1442;47.448;8.582;2023-03-19T09:04:02;3.30;;;2.25;;
2868;SDS011;1442;47.448;8.582;2023-03-19T09:06:29;4.13;;;2.33;;
2868;SDS011;1442;47.448;8.582;2023-03-19T09:08:56;5.72;;;2.72;;
2868;SDS011;1442;47.448;8.582;2023-03-19T09:11:23;4.55;;;2.25;;
2868;SDS011;1442;47.448;8.582;2023-03-19T09:13:50;4.32;;;2.13;;
2868;SDS011;1442;47.448;8.582;2023-03-19T09:16:17;6.05;;;2.08;;
2868;SDS011;1442;47.448;8.582;2023-03-19T09:18:45;5.35;;;2.20;;
2868;SDS011;1442;47.448;8.582;2023-03-19T09:21:13;3.80;;;1.88;;
2868;SDS011;1442;47.448;8.582;2023-03-19T09:23:41;3.78;;;1.95;;
2868;SDS011;1442;47.448;8.582;2023-03-19T09:26:08;3.80;;;2.40;;
2868;SDS011;1442;47.448;8.582;2023-03-19T09:28:35;9.15;;;1.90;;
2868;SDS011;1442;47.448;8.582;2023-03-19T09:31:02;4.55;;;1.67;;
2868;SDS011;1442;47.448;8.582;2023-03-19T09:33:31;6.95;;;2.45;;
2868;SDS011;1442;47.448;8.582;2023-03-19T09:35:58;10.18;;;2.00;;
2868;SDS011;1442;47.448;8.582;2023-03-19T09:38:27;4.63;;;2.08;;
2868;SDS011;1442;47.448;8.582;2023-03-19T09:41:01;5.30;;;2.35;;
2868;SDS011;1442;47.448;8.582;2023-03-19T09:43:33;4.43;;;2.30;;
2868;SDS011;1442;47.448;8.582;2023-03-19T09:46:05;5.45;;;2.63;;
2868;SDS011;1442;47.448;8.582;2023-03-19T09:48:41;5.65;;;2.28;;
2868;SDS011;1442;47.448;8.582;2023-03-19T09:51:13;6.57;;;2.22;;
2868;SDS011;1442;47.448;8.582;2023-03-19T09:53:44;5.05;;;2.40;;
2868;SDS011;1442;47.448;8.582;2023-03-19T09:56:13;5.63;;;2.20;;
2868;SDS011;1442;47.448;8.582;2023-03-19T09:58:43;5.97;;;2.25;;
2868;SDS011;1442;47.448;8.582;2023-03-19T10:01:17;6.32;;;2.40;;
2868;SDS011;1442;47.448;8.582;2023-03-19T10:03:59;7.60;;;2.63;;
2868;SDS011;1442;47.448;8.582;2023-03-19T10:06:28;6.22;;;2.17;;
2868;SDS011;1442;47.448;8.582;2023-03-19T10:09:10;4.18;;;2.00;;
2868;SDS011;1442;47.448;8.582;2023-03-19T10:11:45;8.20;;;2.60;;
2868;SDS011;1442;47.448;8.582;2023-03-19T10:14:23;3.88;;;2.03;;
2868;SDS011;1442;47.448;8.582;2023-03-19T10:16:55;7.07;;;2.50;;
2868;SDS011;1442;47.448;8.582;2023-03-19T10:19:25;7.10;;;2.97;;
2868;SDS011;1442;47.448;8.582;2023-03-19T10:21:58;3.42;;;2.25;;
2868;SDS011;1442;47.448;8.582;2023-03-19T10:24:29;4.75;;;2.30;;
2868;SDS011;1442;47.448;8.582;2023-03-19T10:26:58;5.57;;;2.58;;
2868;SDS011;1442;47.448;8.582;2023-03-19T10:29:27;7.28;;;3.15;;
2868;SDS011;1442;47.448;8.582;2023-03-19T10:31:55;9.00;;;2.50;;
2868;SDS011;1442;47.448;8.582;2023-03-19T10:34:29;6.78;;;2.40;;
2868;SDS011;1442;47.448;8.582;2023-03-19T10:36:57;8.77;;;2.40;;
2868;SDS011;1442;47.448;8.582;2023-03-19T10:39:25;8.38;;;2.42;;
2868;SDS011;1442;47.448;8.582;2023-03-19T10:41:56;7.80;;;2.45;;
2868;SDS011;1442;47.448;8.582;2023-03-19T10:44:30;5.68;;;2.65;;
2868;SDS011;1442;47.448;8.582;2023-03-19T10:46:58;6.40;;;2.50;;
2868;SDS011;1442;47.448;8.582;2023-03-19T10:49:25;2.90;;;2.08;;
2868;SDS011;1442;47.448;8.582;2023-03-19T10:51:52;6.60;;;2.17;;
2868;SDS011;1442;47.448;8.582;2023-03-19T10:54:23;4.43;;;2.35;;
2868;SDS011;1442;47.448;8.582;2023-03-19T10:56:50;3.40;;;2.28;;
2868;SDS011;1442;47.448;8.582;2023-03-19T10:59:23;4.38;;;2.58;;
2868;SDS011;1442;47.448;8.582;2023-03-19T11:01:54;3.95;;;2.50;;
2868;SDS011;1442;47.448;8.582;2023-03-19T11:04:22;5.32;;;2.85;;
2868;SDS011;1442;47.448;8.582;2023-03-19T11:06:50;6.53;;;2.53;;
2868;SDS011;1442;47.448;8.582;2023-03-19T11:09:18;5.82;;;2.30;;
2868;SDS011;1442;47.448;8.582;2023-03-19T11:11:49;3.90;;;2.58;;
2868;SDS011;1442;47.448;8.582;2023-03-19T11:14:18;5.63;;;2.28;;
2868;SDS011;1442;47.448;8.582;2023-03-19T11:16:49;6.65;;;2.63;;
2868;SDS011;1442;47.448;8.582;2023-03-19T11:19:20;3.25;;;2.30;;
2868;SDS011;1442;47.448;8.582;2023-03-19T11:21:52;5.45;;;2.60;;
2868;SDS011;1442;47.448;8.582;2023-03-19T11:24:19;6.35;;;2.67;;
2868;SDS011;1442;47.448;8.582;2023-03-19T11:26:52;6.13;;;2.65;;
2868;SDS011;1442;47.448;8.582;2023-03-19T11:29:20;4.15;;;2.50;;
2868;SDS011;1442;47.448;8.582;2023-03-19T11:31:50;8.65;;;2.53;;
2868;SDS011;1442;47.448;8.582;2023-03-19T11:34:22;3.60;;;2.22;;
2868;SDS011;1442;47.448;8.582;2023-03-19T11:36:54;4.30;;;2.42;;
2868;SDS011;1442;47.448;8.582;2023-03-19T11:39:25;6.10;;;2.25;;
2868;SDS011;1442;47.448;8.582;2023-03-19T11:41:59;3.95;;;2.53;;
2868;SDS011;1442;47.448;8.582;2023-03-19T11:44:31;4.00;;;2.22;;
2868;SDS011;1442;47.448;8.582;2023-03-19T11:47:04;6.35;;;2.40;;
2868;SDS011;1442;47.448;8.582;2023-03-19T11:49:48;3.95;;;2.40;;
2868;SDS011;1442;47.448;8.582;2023-03-19T11:52:17;3.28;;;2.40;;
2868;SDS011;1442;47.448;8.582;2023-03-19T11:57:17;4.82;;;2.78;;
2868;SDS011;1442;47.448;8.582;2023-03-19T11:59:49;5.57;;;2.28;;
2868;SDS011;1442;47.448;8.582;2023-03-19T12:02:26;4.57;;;2.95;;
2868;SDS011;1442;47.448;8.582;2023-03-19T12:07:41;5.55;;;2.72;;
2868;SDS011;1442;47.448;8.582;2023-03-19T12:10:27;4.85;;;2.70;;
2868;SDS011;1442;47.448;8.582;2023-03-19T12:12:57;8.82;;;3.33;;
2868;SDS011;1442;47.448;8.582;2023-03-19T12:15:26;5.68;;;2.75;;
2868;SDS011;1442;47.448;8.582;2023-03-19T12:17:59;3.55;;;2.25;;
2868;SDS011;1442;47.448;8.582;2023-03-19T12:20:32;5.47;;;2.83;;
2868;SDS011;1442;47.448;8.582;2023-03-19T12:23:06;4.85;;;2.38;;
2868;SDS011;1442;47.448;8.582;2023-03-19T12:25:50;5.35;;;2.38;;
2868;SDS011;1442;47.448;8.582;2023-03-19T12:28:22;4.97;;;2.92;;
2868;SDS011;1442;47.448;8.582;2023-03-19T12:30:54;10.20;;;4.43;;
2868;SDS011;1442;47.448;8.582;2023-03-19T12:33:30;14.30;;;6.93;;
2868;SDS011;1442;47.448;8.582;2023-03-19T12:36:02;9.55;;;3.95;;
2868;SDS011;1442;47.448;8.582;2023-03-19T12:38:32;4.55;;;2.60;;
2868;SDS011;1442;47.448;8.582;2023-03-19T12:41:02;4.13;;;2.53;;
2868;SDS011;1442;47.448;8.582;2023-03-19T12:43:33;3.70;;;2.58;;
2868;SDS011;1442;47.448;8.582;2023-03-19T12:46:01;5.30;;;2.72;;
2868;SDS011;1442;47.448;8.582;2023-03-19T12:48:34;7.53;;;2.70;;
2868;SDS011;1442;47.448;8.582;2023-03-19T12:51:04;7.63;;;3.13;;
2868;SDS011;1442;47.448;8.582;2023-03-19T12:53:34;5.75;;;2.47;;
2868;SDS011;1442;47.448;8.582;2023-03-19T12:56:07;6.93;;;2.95;;
2868;SDS011;1442;47.448;8.582;2023-03-19T12:58:37;4.60;;;2.35;;
2868;SDS011;1442;47.448;8.582;2023-03-19T13:01:08;9.32;;;2.80;;
2868;SDS011;1442;47.448;8.582;2023-03-19T13:03:40;5.35;;;2.60;;
2868;SDS011;1442;47.448;8.582;2023-03-19T13:06:09;6.25;;;2.72;;
2868;SDS011;1442;47.448;8.582;2023-03-19T13:08:40;6.25;;;2.80;;
2868;SDS011;1442;47.448;8.582;2023-03-19T13:11:10;7.05;;;2.70;;
2868;SDS011;1442;47.448;8.582;2023-03-19T13:13:40;6.15;;;2.75;;
2868;SDS011;1442;47.448;8.582;2023-03-19T13:16:10;3.38;;;2.42;;
2868;SDS011;1442;47.448;8.582;2023-03-19T13:18:45;3.58;;;2.70;;
2868;SDS011;1442;47.448;8.582;2023-03-19T13:21:17;3.67;;;2.00;;
2868;SDS011;1442;47.448;8.582;2023-03-19T13:23:46;4.50;;;2.63;;
2868;SDS011;1442;47.448;8.582;2023-03-19T13:26:15;7.57;;;2.75;;
2868;SDS011;1442;47.448;8.582;2023-03-19T13:28:58;11.98;;;3.17;;
2868;SDS011;1442;47.448;8.582;2023-03-19T13:31:26;4.93;;;2.63;;
2868;SDS011;1442;47.448;8.582;2023-03-19T13:34:00;9.70;;;2.78;;
2868;SDS011;1442;47.448;8.582;2023-03-19T13:36:28;6.80;;;2.85;;
2868;SDS011;1442;47.448;8.582;2023-03-19T13:38:56;11.90;;;2.80;;
2868;SDS011;1442;47.448;8.582;2023-03-19T13:44:18;5.05;;;2.45;;
2868;SDS011;1442;47.448;8.582;2023-03-19T13:46:50;5.40;;;2.58;;
2868;SDS011;1442;47.448;8.582;2023-03-19T13:49:31;5.78;;;2.70;;
2868;SDS011;1442;47.448;8.582;2023-03-19T13:52:00;10.20;;;2.75;;
2868;SDS011;1442;47.448;8.582;2023-03-19T13:54:38;8.50;;;2.70;;
2868;SDS011;1442;47.448;8.582;2023-03-19T13:57:15;4.70;;;2.63;;
2868;SDS011;1442;47.448;8.582;2023-03-19T13:59:43;3.72;;;2.63;;
2868;SDS011;1442;47.448;8.582;2023-03-19T14:04:58;9.73;;;2.88;;
2868;SDS011;1442;47.448;8.582;2023-03-19T14:07:27;4.95;;;2.08;;
2868;SDS011;1442;47.448;8.582;2023-03-19T14:10:02;4.95;;;2.90;;
2868;SDS011;1442;47.448;8.582;2023-03-19T14:12:30;5.15;;;2.80;;
2868;SDS011;1442;47.448;8.582;2023-03-19T14:14:58;4.72;;;2.47;;
2868;SDS011;1442;47.448;8.582;2023-03-19T14:17:29;4.20;;;2.20;;
2868;SDS011;1442;47.448;8.582;2023-03-19T14:20:02;4.03;;;2.50;;
2868;SDS011;1442;47.448;8.582;2023-03-19T14:22:32;7.15;;;3.08;;
2868;SDS011;1442;47.448;8.582;2023-03-19T14:25:02;5.93;;;2.25;;
2868;SDS011;1442;47.448;8.582;2023-03-19T14:27:30;7.43;;;2.60;;
2868;SDS011;1442;47.448;8.582;2023-03-19T14:29:58;2.92;;;2.30;;
2868;SDS011;1442;47.448;8.582;2023-03-19T14:32:31;8.10;;;2.50;;
2868;SDS011;1442;47.448;8.582;2023-03-19T14:35:00;6.20;;;2.33;;
2868;SDS011;1442;47.448;8.582;2023-03-19T14:37:30;4.55;;;2.35;;
2868;SDS011;1442;47.448;8.582;2023-03-19T14:40:02;3.17;;;1.92;;
2868;SDS011;1442;47.448;8.582;2023-03-19T14:42:37;3.72;;;1.70;;
2868;SDS011;1442;47.448;8.582;2023-03-19T14:48:02;3.58;;;1.70;;
2868;SDS011;1442;47.448;8.582;2023-03-19T14:50:35;2.72;;;1.52;;
2868;SDS011;1442;47.448;8.582;2023-03-19T14:53:08;4.65;;;1.80;;
2868;SDS011;1442;47.448;8.582;2023-03-19T14:55:38;4.18;;;1.77;;
2868;SDS011;1442;47.448;8.582;2023-03-19T14:58:07;5.03;;;1.73;;
2868;SDS011;1442;47.448;8.582;2023-03-19T15:00:39;5.03;;;1.83;;
2868;SDS011;1442;47.448;8.582;2023-03-19T15:03:12;4.72;;;1.85;;
2868;SDS011;1442;47.448;8.582;2023-03-19T15:05:45;3.30;;;2.10;;
2868;SDS011;1442;47.448;8.582;2023-03-19T15:08:14;4.80;;;2.22;;
2868;SDS011;1442;47.448;8.582;2023-03-19T15:10:47;4.80;;;2.20;;
2868;SDS011;1442;47.448;8.582;2023-03-19T15:13:17;4.95;;;2.25;;
2868;SDS011;1442;47.448;8.582;2023-03-19T15:15:55;4.68;;;2.47;;
2868;SDS011;1442;47.448;8.582;2023-03-19T15:18:25;4.00;;;2.00;;
2868;SDS011;1442;47.448;8.582;2023-03-19T15:20:53;6.90;;;1.60;;
2868;SDS011;1442;47.448;8.582;2023-03-19T15:23:21;6.28;;;2.30;;
2868;SDS011;1442;47.448;8.582;2023-03-19T15:25:50;3.92;;;2.40;;
2868;SDS011;1442;47.448;8.582;2023-03-19T15:28:21;5.90;;;2.35;;
2868;SDS011;1442;47.448;8.582;2023-03-19T15:30:53;5.82;;;2.47;;
2868;SDS011;1442;47.448;8.582;2023-03-19T15:33:21;5.97;;;2.30;;
2868;SDS011;1442;47.448;8.582;2023-03-19T15:35:51;4.72;;;1.90;;
2868;SDS011;1442;47.448;8.582;2023-03-19T15:38:19;3.35;;;1.92;;
2868;SDS011;1442;47.448;8.582;2023-03-19T15:40:47;2.75;;;2.05;;